createdAt,value
2023-04-02T00:02:23.095Z,91.16
2023-04-02T00:05:19.444Z,90.50
2023-04-02T00:07:51.239Z,90.04
2023-04-02T00:10:39.060Z,88.98
2023-04-02T00:13:13.686Z,89.25
2023-04-02T00:15:44.391Z,89.11
2023-04-02T00:18:18.357Z,90.92
2023-04-02T00:20:50.987Z,89.75
2023-04-02T00:23:17.539Z,90.02
2023-04-02T00:25:45.808Z,90.28
2023-04-02T00:28:22.746Z,90.10
2023-04-02T00:30:54.031Z,90.38
2023-04-02T00:33:27.031Z,91.45
2023-04-02T00:35:55.355Z,90.74
2023-04-02T00:38:32.316Z,90.55
2023-04-02T00:41:03.031Z,90.25
2023-04-02T00:43:33.051Z,90.01
2023-04-02T00:46:10.787Z,90.77
2023-04-02T00:48:49.242Z,90.75
2023-04-02T00:51:37.037Z,90.70
2023-04-02T00:54:09.673Z,89.48
2023-04-02T00:56:47.407Z,89.27
2023-04-02T01:00:00.157Z,89.88
2023-04-02T01:02:29.686Z,89.55
2023-04-02T01:05:02.182Z,90.53
2023-04-02T01:07:43.351Z,90.13
2023-04-02T01:10:33.916Z,90.11
2023-04-02T01:13:22.382Z,89.56
2023-04-02T01:16:03.281Z,90.15
2023-04-02T01:18:46.404Z,89.71
2023-04-02T01:21:34.753Z,90.34
2023-04-02T01:24:13.667Z,89.52
2023-04-02T01:26:53.791Z,89.63
2023-04-02T01:29:33.502Z,89.17
2023-04-02T01:32:10.364Z,88.94
2023-04-02T01:34:38.706Z,89.01
2023-04-02T01:37:32.345Z,89.23
2023-04-02T01:40:31.184Z,89.80
2023-04-02T01:43:09.752Z,89.62
2023-04-02T01:45:37.715Z,90.14
2023-04-02T01:48:17.862Z,89.83
2023-04-02T01:50:45.884Z,89.97
2023-04-02T01:53:15.060Z,90.22
2023-04-02T01:55:54.368Z,90.17
2023-04-02T01:58:27.174Z,90.03
2023-04-02T02:01:02.384Z,91.55
2023-04-02T02:03:29.799Z,90.31
2023-04-02T02:05:57.181Z,91.70
2023-04-02T02:08:53.387Z,91.67
2023-04-02T02:11:26.626Z,89.81
2023-04-02T02:14:17.209Z,89.15
2023-04-02T02:16:45.792Z,89.12
2023-04-02T02:19:24.353Z,89.88
2023-04-02T02:21:54.793Z,90.60
2023-04-02T02:24:28.908Z,89.59
2023-04-02T02:27:22.961Z,89.06
2023-04-02T02:29:51.823Z,89.35
2023-04-02T02:32:22.620Z,90.28
2023-04-02T02:34:59.118Z,90.20
2023-04-02T02:37:30.730Z,90.21
2023-04-02T02:40:01.321Z,88.97
2023-04-02T02:42:39.657Z,88.95
2023-04-02T02:45:13.047Z,88.92
2023-04-02T02:47:42.275Z,89.65
2023-04-02T02:50:18.213Z,88.59
2023-04-02T02:52:51.226Z,88.45
2023-04-02T02:55:22.364Z,89.41
2023-04-02T02:57:59.070Z,89.08
2023-04-02T03:00:26.583Z,88.39
2023-04-02T03:02:56.575Z,87.92
2023-04-02T03:05:26.179Z,88.56
2023-04-02T03:07:53.909Z,88.57
2023-04-02T03:10:29.798Z,87.47
2023-04-02T03:13:15.012Z,87.51
2023-04-02T03:15:50.643Z,88.38
2023-04-02T03:18:37.396Z,88.25
2023-04-02T03:21:30.217Z,88.31
2023-04-02T03:24:05.775Z,88.46
2023-04-02T03:26:35.281Z,87.58
2023-04-02T03:29:24.997Z,87.72
2023-04-02T03:31:59.659Z,89.00
2023-04-02T03:34:38.128Z,89.38
2023-04-02T03:37:22.880Z,86.81
2023-04-02T03:40:10.145Z,85.68
2023-04-02T03:42:46.336Z,86.83
2023-04-02T03:45:20.245Z,86.72
2023-04-02T03:48:04.300Z,86.31
2023-04-02T03:51:02.928Z,86.91
2023-04-02T03:53:32.161Z,88.02
2023-04-02T03:56:00.706Z,87.96
2023-04-02T03:58:49.371Z,88.84
2023-04-02T04:01:53.859Z,87.56
2023-04-02T04:04:25.025Z,87.46
2023-04-02T04:06:52.844Z,88.71
2023-04-02T04:09:37.031Z,88.15
2023-04-02T04:12:25.286Z,88.19
2023-04-02T04:15:02.360Z,89.43
2023-04-02T04:17:51.488Z,88.23
2023-04-02T04:20:21.870Z,86.97
2023-04-02T04:22:50.410Z,88.92
2023-04-02T04:25:34.007Z,89.26
2023-04-02T04:28:26.598Z,88.74
2023-04-02T04:31:00.397Z,89.54
2023-04-02T04:33:39.479Z,89.24
2023-04-02T04:36:19.250Z,88.95
2023-04-02T04:38:55.548Z,89.09
2023-04-02T04:41:28.143Z,89.68
2023-04-02T04:44:14.524Z,88.42
2023-04-02T04:46:47.432Z,87.67
2023-04-02T04:49:25.084Z,88.29
2023-04-02T04:51:57.466Z,88.47
2023-04-02T04:54:27.837Z,87.70
2023-04-02T04:57:03.840Z,88.79
2023-04-02T04:59:45.834Z,89.36
2023-04-02T05:02:16.154Z,89.20
2023-04-02T05:04:48.583Z,88.61
2023-04-02T05:07:31.907Z,90.32
2023-04-02T05:10:13.268Z,88.69
2023-04-02T05:12:52.887Z,88.50
2023-04-02T05:15:23.222Z,89.32
2023-04-02T05:17:59.650Z,89.06
2023-04-02T05:20:40.814Z,87.78
2023-04-02T05:23:27.587Z,86.64
2023-04-02T05:26:17.193Z,86.81
2023-04-02T05:29:12.432Z,86.54
2023-04-02T05:31:50.449Z,87.49
2023-04-02T05:34:25.641Z,87.28
2023-04-02T05:36:52.213Z,86.88
2023-04-02T05:39:23.176Z,87.39
2023-04-02T05:42:01.276Z,88.28
2023-04-02T05:44:31.274Z,87.84
2023-04-02T05:47:06.710Z,87.76
2023-04-02T05:49:39.392Z,87.99
2023-04-02T05:52:12.004Z,87.32
2023-04-02T05:54:47.700Z,87.20
2023-04-02T05:57:17.302Z,87.63
2023-04-02T05:59:50.745Z,88.88
2023-04-02T06:02:39.301Z,88.97
2023-04-02T06:05:15.839Z,87.30
2023-04-02T06:07:48.299Z,88.32
2023-04-02T06:10:24.777Z,87.06
2023-04-02T06:13:03.758Z,87.60
2023-04-02T06:15:32.853Z,86.80
2023-04-02T06:18:00.702Z,87.10
2023-04-02T06:20:28.430Z,86.86
2023-04-02T06:23:11.661Z,87.90
2023-04-02T06:26:00.255Z,87.43
2023-04-02T06:28:40.414Z,87.16
2023-04-02T06:31:18.367Z,87.21
2023-04-02T06:33:44.943Z,87.31
2023-04-02T06:36:12.575Z,87.41
2023-04-02T06:38:40.878Z,87.52
2023-04-02T06:41:17.493Z,86.32
2023-04-02T06:44:09.260Z,87.07
2023-04-02T06:46:59.042Z,87.15
2023-04-02T06:49:55.596Z,86.80
2023-04-02T06:52:37.356Z,88.23
2023-04-02T06:55:28.412Z,86.50
2023-04-02T06:57:54.966Z,85.38
2023-04-02T07:00:43.310Z,84.47
2023-04-02T07:03:31.585Z,86.53
2023-04-02T07:06:00.980Z,85.88
2023-04-02T07:08:27.491Z,84.57
2023-04-02T07:10:54.682Z,83.18
2023-04-02T07:13:23.437Z,83.33
2023-04-02T07:15:54.975Z,83.88
2023-04-02T07:18:33.672Z,83.97
2023-04-02T07:21:00.411Z,84.25
2023-04-02T07:23:27.245Z,84.33
2023-04-02T07:25:55.330Z,84.56
2023-04-02T07:28:23.075Z,85.47
2023-04-02T07:30:51.241Z,85.75
2023-04-02T07:33:20.558Z,85.23
2023-04-02T07:35:48.258Z,85.56
2023-04-02T07:38:14.838Z,85.99
2023-04-02T07:40:41.585Z,84.28
2023-04-02T07:43:08.389Z,84.25
2023-04-02T07:45:35.994Z,84.36
2023-04-02T07:48:06.972Z,83.04
2023-04-02T07:50:34.070Z,82.94
2023-04-02T07:53:01.057Z,82.63
2023-04-02T07:55:27.614Z,81.88
2023-04-02T07:57:56.300Z,81.66
2023-04-02T08:00:24.297Z,81.72
2023-04-02T08:02:51.413Z,80.97
2023-04-02T08:05:18.602Z,82.04
2023-04-02T08:07:53.794Z,82.26
2023-04-02T08:10:20.631Z,81.08
2023-04-02T08:12:47.166Z,81.93
2023-04-02T08:15:15.781Z,80.41
2023-04-02T08:17:43.383Z,80.02
2023-04-02T08:20:18.991Z,80.26
2023-04-02T08:22:46.855Z,79.99
2023-04-02T08:25:13.530Z,78.22
2023-04-02T08:27:40.109Z,76.87
2023-04-02T08:30:08.815Z,78.04
2023-04-02T08:32:35.579Z,80.23
2023-04-02T08:35:02.676Z,80.54
2023-04-02T08:37:29.308Z,79.63
2023-04-02T08:39:55.825Z,79.50
2023-04-02T08:42:33.171Z,78.96
2023-04-02T08:45:25.134Z,80.00
2023-04-02T08:47:56.626Z,79.45
2023-04-02T08:50:32.178Z,80.25
2023-04-02T08:53:00.532Z,79.59
2023-04-02T08:55:47.862Z,77.44
2023-04-02T08:58:27.850Z,76.92
2023-04-02T09:00:57.785Z,75.61
2023-04-02T09:03:42.660Z,77.28
2023-04-02T09:06:15.353Z,74.88
2023-04-02T09:08:46.208Z,73.78
2023-04-02T09:11:12.602Z,74.25
2023-04-02T09:13:46.533Z,76.63
2023-04-02T09:16:16.415Z,75.99
2023-04-02T09:18:45.055Z,76.56
2023-04-02T09:21:20.906Z,73.60
2023-04-02T09:23:49.175Z,74.36
2023-04-02T09:26:23.692Z,73.16
2023-04-02T09:29:01.075Z,73.07
2023-04-02T09:31:37.622Z,73.41
2023-04-02T09:34:34.127Z,74.56
2023-04-02T09:37:19.035Z,74.49
2023-04-02T09:39:45.782Z,74.47
2023-04-02T09:42:36.297Z,74.47
2023-04-02T09:45:38.487Z,75.36
2023-04-02T09:48:24.016Z,75.29
2023-04-02T09:50:50.612Z,75.57
2023-04-02T09:53:29.423Z,75.09
2023-04-02T09:56:11.556Z,75.38
2023-04-02T09:58:38.822Z,76.16
2023-04-02T10:01:05.554Z,75.86
2023-04-02T10:03:33.141Z,75.96
2023-04-02T10:06:05.596Z,75.74
2023-04-02T10:08:32.898Z,75.78
2023-04-02T10:11:07.610Z,75.12
2023-04-02T10:13:57.588Z,75.80
2023-04-02T10:16:47.370Z,74.98
2023-04-02T10:19:36.306Z,74.24
2023-04-02T10:22:13.684Z,74.19
2023-04-02T10:24:43.561Z,74.24
2023-04-02T10:27:42.227Z,73.88
2023-04-02T10:30:14.571Z,74.22
2023-04-02T10:32:44.625Z,74.02
2023-04-02T10:35:25.211Z,74.67
2023-04-02T10:38:19.202Z,73.33
2023-04-02T10:40:53.650Z,73.64
2023-04-02T10:43:50.039Z,72.88
2023-04-02T10:46:43.753Z,72.70
2023-04-02T10:49:28.945Z,72.20
2023-04-02T10:52:07.654Z,71.28
2023-04-02T10:54:45.528Z,70.52
2023-04-02T10:57:22.331Z,72.75
2023-04-02T10:59:59.789Z,72.08
2023-04-02T11:02:34.086Z,71.95
2023-04-02T11:05:11.819Z,72.41
2023-04-02T11:07:52.301Z,73.23
2023-04-02T11:10:21.326Z,73.07
2023-04-02T11:12:57.855Z,72.39
2023-04-02T11:15:25.513Z,72.68
2023-04-02T11:17:52.289Z,72.67
2023-04-02T11:20:44.142Z,71.21
2023-04-02T11:23:12.881Z,71.37
2023-04-02T11:25:41.335Z,71.18
2023-04-02T11:28:30.857Z,70.13
2023-04-02T11:30:58.439Z,71.35
2023-04-02T11:33:38.221Z,70.71
2023-04-02T11:36:44.370Z,70.70
2023-04-02T11:39:17.367Z,71.02
2023-04-02T11:42:17.935Z,71.05
2023-04-02T11:44:44.846Z,71.69
2023-04-02T11:47:15.509Z,71.42
2023-04-02T11:50:04.397Z,70.28
2023-04-02T11:52:51.138Z,70.87
2023-04-02T11:55:25.161Z,71.48
2023-04-02T11:58:02.357Z,71.30
2023-04-02T12:01:26.302Z,71.36
2023-04-02T12:04:32.646Z,70.21
2023-04-02T12:07:26.593Z,70.21
2023-04-02T12:09:59.258Z,68.66
2023-04-02T12:12:38.233Z,68.09
2023-04-02T12:15:24.527Z,68.57
2023-04-02T12:17:51.230Z,68.29
2023-04-02T12:20:22.931Z,68.35
2023-04-02T12:22:54.951Z,68.52
2023-04-02T12:25:23.796Z,68.99
2023-04-02T12:28:09.466Z,69.72
2023-04-02T12:30:39.697Z,67.61
2023-04-02T12:33:27.791Z,67.11
2023-04-02T12:36:01.564Z,67.54
2023-04-02T12:38:46.391Z,65.71
2023-04-02T12:41:27.403Z,65.85
2023-04-02T12:44:02.236Z,66.40
2023-04-02T12:46:31.160Z,64.59
2023-04-02T12:49:39.796Z,63.34
2023-04-02T12:52:11.780Z,64.02
2023-04-02T12:54:44.972Z,64.64
2023-04-02T12:57:26.880Z,65.00
2023-04-02T12:59:55.660Z,64.65
2023-04-02T13:02:30.991Z,64.14
2023-04-02T13:05:01.916Z,66.22
2023-04-02T13:07:33.763Z,64.66
2023-04-02T13:10:22.989Z,63.20
2023-04-02T13:12:58.674Z,62.55
2023-04-02T13:15:26.602Z,63.08
2023-04-02T13:18:12.378Z,62.38
2023-04-02T13:20:41.199Z,63.61
2023-04-02T13:23:29.793Z,64.12
2023-04-02T13:25:58.633Z,65.06
2023-04-02T13:28:25.595Z,65.49
2023-04-02T13:30:52.155Z,64.93
2023-04-02T13:33:20.489Z,65.18
2023-04-02T13:35:47.135Z,65.84
2023-04-02T13:38:13.850Z,65.30
2023-04-02T13:40:40.484Z,66.33
2023-04-02T13:43:15.718Z,66.26
2023-04-02T13:45:43.037Z,65.63
2023-04-02T13:48:14.517Z,65.69
2023-04-02T13:50:41.344Z,65.34
2023-04-02T13:53:12.968Z,64.90
2023-04-02T13:55:42.610Z,65.51
2023-04-02T13:58:11.499Z,66.28
2023-04-02T14:00:38.334Z,66.20
2023-04-02T14:03:14.391Z,66.61
2023-04-02T14:06:07.039Z,67.27
2023-04-02T14:08:41.078Z,67.47
2023-04-02T14:11:29.021Z,67.93
2023-04-02T14:14:06.653Z,67.79
2023-04-02T14:16:39.253Z,67.44
2023-04-02T14:19:24.965Z,67.06
2023-04-02T14:22:16.310Z,67.32
2023-04-02T14:25:28.401Z,67.09
2023-04-02T14:28:04.264Z,66.63
2023-04-02T14:30:40.104Z,66.43
2023-04-02T14:33:17.731Z,66.40
2023-04-02T14:35:48.023Z,66.34
2023-04-02T14:38:41.273Z,67.43
2023-04-02T14:41:17.273Z,65.36
2023-04-02T14:44:11.484Z,65.48
2023-04-02T14:46:38.538Z,65.66
2023-04-02T14:49:17.263Z,66.04
2023-04-02T14:51:59.099Z,67.17
2023-04-02T14:54:37.772Z,66.54
2023-04-02T14:57:12.303Z,65.74
2023-04-02T15:00:05.027Z,65.66
2023-04-02T15:02:35.514Z,65.40
2023-04-02T15:05:20.263Z,65.25
2023-04-02T15:07:56.624Z,65.93
2023-04-02T15:10:31.494Z,65.35
2023-04-02T15:13:00.185Z,65.77
2023-04-02T15:15:40.856Z,64.91
2023-04-02T15:18:16.859Z,64.40
2023-04-02T15:20:48.596Z,64.62
2023-04-02T15:23:39.826Z,64.87
2023-04-02T15:26:29.628Z,64.77
2023-04-02T15:29:29.042Z,65.16
2023-04-02T15:32:17.484Z,65.25
2023-04-02T15:34:47.021Z,64.94
2023-04-02T15:37:19.810Z,65.14
2023-04-02T15:40:14.155Z,64.40
2023-04-02T15:42:48.404Z,64.96
2023-04-02T15:45:25.795Z,65.54
2023-04-02T15:48:20.062Z,65.65
2023-04-02T15:50:49.536Z,64.26
2023-04-02T15:53:48.384Z,65.27
2023-04-02T15:56:32.303Z,65.32
2023-04-02T15:59:29.571Z,65.19
2023-04-02T16:02:14.827Z,65.36
2023-04-02T16:05:11.228Z,65.01
2023-04-02T16:07:40.843Z,65.17
2023-04-02T16:10:40.889Z,64.79
2023-04-02T16:13:27.019Z,65.06
2023-04-02T16:16:15.447Z,65.06
2023-04-02T16:18:49.830Z,64.75
2023-04-02T16:21:21.200Z,65.12
2023-04-02T16:23:48.342Z,64.55
2023-04-02T16:26:21.968Z,65.41
2023-04-02T16:29:20.731Z,65.27
2023-04-02T16:32:06.122Z,65.84
2023-04-02T16:35:38.199Z,64.78
2023-04-02T16:38:33.875Z,65.40
2023-04-02T16:41:27.694Z,65.50
2023-04-02T16:44:00.230Z,65.13
2023-04-02T16:46:40.541Z,65.07
2023-04-02T16:49:36.086Z,65.02
2023-04-02T16:52:27.956Z,65.65
2023-04-02T16:55:12.730Z,64.65
2023-04-02T16:58:26.593Z,64.93
2023-04-02T17:01:18.735Z,65.19
2023-04-02T17:03:51.695Z,64.98
2023-04-02T17:06:21.241Z,66.52
2023-04-02T17:08:53.744Z,66.30
2023-04-02T17:11:29.130Z,66.04
2023-04-02T17:14:12.310Z,65.59
2023-04-02T17:16:42.574Z,65.88
2023-04-02T17:19:15.478Z,65.79
2023-04-02T17:21:48.528Z,66.58
2023-04-02T17:24:26.204Z,66.02
2023-04-02T17:27:05.364Z,66.92
2023-04-02T17:29:38.049Z,67.64
2023-04-02T17:32:12.122Z,67.38
2023-04-02T17:34:38.828Z,68.13
2023-04-02T17:37:38.992Z,67.46
2023-04-02T17:40:22.858Z,68.44
2023-04-02T17:43:13.837Z,68.37
2023-04-02T17:45:51.501Z,68.20
2023-04-02T17:48:27.618Z,68.67
2023-04-02T17:51:30.440Z,69.41
2023-04-02T17:54:11.826Z,69.36
2023-04-02T17:57:06.240Z,70.01
2023-04-02T17:59:49.032Z,69.90
2023-04-02T18:02:42.552Z,70.06
2023-04-02T18:05:12.188Z,70.41
2023-04-02T18:07:41.791Z,69.49
2023-04-02T18:10:23.535Z,70.16
2023-04-02T18:12:57.082Z,71.02
2023-04-02T18:15:41.653Z,71.14
2023-04-02T18:18:43.344Z,70.35
2023-04-02T18:21:10.039Z,70.40
2023-04-02T18:23:55.459Z,69.97
2023-04-02T18:26:34.406Z,71.03
2023-04-02T18:29:16.705Z,70.65
2023-04-02T18:31:57.677Z,70.52
2023-04-02T18:34:45.285Z,70.85
2023-04-02T18:37:24.018Z,70.77
2023-04-02T18:40:18.842Z,70.98
2023-04-02T18:43:10.084Z,71.21
2023-04-02T18:45:42.548Z,71.81
2023-04-02T18:48:34.071Z,71.32
2023-04-02T18:51:02.131Z,71.21
2023-04-02T18:53:32.576Z,71.68
2023-04-02T18:56:06.389Z,71.34
2023-04-02T18:58:49.373Z,71.36
2023-04-02T19:01:21.283Z,70.58
2023-04-02T19:03:53.208Z,71.03
2023-04-02T19:06:35.117Z,70.98
2023-04-02T19:09:06.741Z,71.52
2023-04-02T19:11:33.702Z,71.53
2023-04-02T19:14:02.496Z,71.69
2023-04-02T19:16:41.174Z,72.35
2023-04-02T19:19:27.962Z,72.22
2023-04-02T19:22:19.443Z,71.90
2023-04-02T19:25:04.652Z,73.07
2023-04-02T19:27:42.777Z,72.93
2023-04-02T19:30:27.281Z,72.75
2023-04-02T19:33:13.439Z,72.77
2023-04-02T19:35:49.208Z,72.81
2023-04-02T19:38:36.928Z,72.97
2023-04-02T19:41:31.346Z,72.80
2023-04-02T19:44:00.818Z,73.46
2023-04-02T19:46:27.503Z,74.46
2023-04-02T19:49:10.429Z,74.16
2023-04-02T19:51:37.022Z,73.74
2023-04-02T19:54:04.215Z,73.46
2023-04-02T19:56:30.884Z,74.04
2023-04-02T19:58:58.286Z,73.15
2023-04-02T20:01:26.703Z,72.86
2023-04-02T20:03:53.441Z,73.72
2023-04-02T20:06:20.036Z,73.68
2023-04-02T20:08:46.896Z,72.62
2023-04-02T20:11:13.745Z,73.19
2023-04-02T20:13:40.387Z,72.70
2023-04-02T20:16:07.855Z,72.63
2023-04-02T20:18:34.459Z,72.62
2023-04-02T20:21:05.108Z,72.01
2023-04-02T20:23:31.715Z,72.05
2023-04-02T20:25:58.340Z,71.83
2023-04-02T20:28:26.927Z,71.57
2023-04-02T20:30:53.738Z,71.38
2023-04-02T20:33:23.533Z,71.43
2023-04-02T20:35:54.624Z,71.33
2023-04-02T20:38:21.154Z,70.90
2023-04-02T20:40:52.836Z,70.33
2023-04-02T20:43:19.433Z,70.46
2023-04-02T20:45:55.191Z,70.47
2023-04-02T20:48:23.331Z,70.09
2023-04-02T20:50:49.928Z,70.19
2023-04-02T20:53:17.577Z,70.03
2023-04-02T20:55:45.854Z,69.74
2023-04-02T20:58:17.322Z,69.75
2023-04-02T21:00:45.360Z,70.01
2023-04-02T21:03:11.950Z,69.28
2023-04-02T21:05:45.450Z,69.74
2023-04-02T21:08:12.292Z,69.31
2023-04-02T21:10:39.544Z,69.37
2023-04-02T21:13:06.613Z,68.86
2023-04-02T21:15:33.615Z,68.88
2023-04-02T21:18:00.636Z,68.44
2023-04-02T21:20:27.195Z,68.35
2023-04-02T21:22:53.993Z,67.79
2023-04-02T21:25:20.518Z,67.34
2023-04-02T21:27:47.031Z,67.63
2023-04-02T21:30:13.745Z,66.94
2023-04-02T21:32:40.262Z,66.71
2023-04-02T21:35:08.746Z,66.65
2023-04-02T21:37:35.299Z,66.66
2023-04-02T21:40:01.864Z,66.34
2023-04-02T21:42:29.075Z,65.62
2023-04-02T21:44:56.052Z,65.64
2023-04-02T21:47:23.724Z,65.57
2023-04-02T21:49:50.394Z,66.09
2023-04-02T21:52:16.912Z,65.64
2023-04-02T21:54:43.434Z,65.54
2023-04-02T21:57:09.998Z,65.90
2023-04-02T21:59:36.611Z,65.61
2023-04-02T22:02:04.852Z,65.35
2023-04-02T22:04:33.339Z,65.43
2023-04-02T22:07:00.029Z,65.87
2023-04-02T22:09:30.641Z,65.73
2023-04-02T22:12:02.274Z,66.06
2023-04-02T22:14:29.231Z,65.41
2023-04-02T22:16:57.920Z,66.01
2023-04-02T22:19:24.599Z,66.75
2023-04-02T22:21:51.742Z,66.20
2023-04-02T22:24:21.314Z,65.93
2023-04-02T22:26:48.955Z,66.32
2023-04-02T22:29:15.824Z,66.32
2023-04-02T22:31:43.422Z,66.15
2023-04-02T22:34:10.000Z,66.31
2023-04-02T22:36:36.559Z,65.40
2023-04-02T22:39:06.774Z,66.32
2023-04-02T22:41:33.574Z,65.86
2023-04-02T22:44:01.278Z,66.13
2023-04-02T22:46:28.698Z,66.46
2023-04-02T22:48:56.024Z,66.57
2023-04-02T22:51:23.866Z,66.50
2023-04-02T22:53:53.581Z,66.91
2023-04-02T22:56:23.324Z,66.23
2023-04-02T22:58:50.417Z,66.34
2023-04-02T23:01:16.928Z,65.95
2023-04-02T23:03:43.921Z,65.33
2023-04-02T23:06:12.996Z,66.29
2023-04-02T23:08:39.930Z,65.87
2023-04-02T23:11:09.843Z,65.62
2023-04-02T23:13:36.966Z,65.41
2023-04-02T23:16:06.209Z,65.89
2023-04-02T23:18:34.920Z,65.84
2023-04-02T23:21:01.653Z,65.12
2023-04-02T23:23:28.331Z,65.25
2023-04-02T23:26:09.978Z,65.15
2023-04-02T23:28:37.716Z,65.27
2023-04-02T23:31:06.934Z,64.01
2023-04-02T23:33:34.485Z,63.95
2023-04-02T23:36:09.876Z,63.61
2023-04-02T23:38:36.616Z,63.81
2023-04-02T23:41:03.403Z,63.91
2023-04-02T23:43:30.079Z,63.27
2023-04-02T23:45:56.783Z,62.87
2023-04-02T23:48:23.480Z,63.57
2023-04-02T23:50:50.092Z,63.15
2023-04-02T23:53:16.744Z,64.29
2023-04-02T23:55:43.343Z,64.90
2023-04-02T23:58:09.925Z,64.80
